RKJK/KUV METAR and TAF weather

Enter ICAO airport designator
Station Type Date Time Source
RKJK METAR 2019/05/20 10:56 UTC NOAA

RKJK 201056Z AUTO 29012KT 10SM CLR 14/10 A2979 RMK AO2 SLP092 T01430101 $


Station Type Date Time Source
RKJK Decoded METAR 2019/05/20 10:56 UTC NOAA

Kunsan Ab, Korea, South (RKJK) 35-55N 126-37E 10M
May 20, 2019 - 06:56 AM EDT / 2019.05.20 1056 UTC
Wind: from the WNW (290 degrees) at 14 MPH (12 KT):0
Visibility: 10 mile(s):0
Sky conditions: clear
Temperature: 57.7 F (14.3 C)
Dew Point: 50.2 F (10.1 C)
Relative Humidity: 75%
Pressure (altimeter): 29.79 in. Hg (1008 hPa)
ob: RKJK 201056Z AUTO 29012KT 10SM CLR 14/10 A2979 RMK AO2 SLP092 T01430101
cycle: 11

Station Type Date Time Source
RKJK TAF 2019/05/20 07:03 UTC NOAA

TAF TAF RKJK 200700Z 2007/2113 31012G18KT 9999 FEW180 QNH2973INS
BECMG 2012/2014 29009KT 9999 SKC QNH2973INS
BECMG 2023/2024 29010G15KT 9999 SKC QNH2970INS
BECMG 2109/2110 VRB06KT 9999 SKC QNH2969INS TX24/2105Z TN15/2021Z

Example: see airport list